sensor_id;sensor_type;location;lat;lon;timestamp;temperature;humidity
5461;DHT22;2753;49.196;8.286;2023-07-28T00:00:21;19.60;99.90
5461;DHT22;2753;49.196;8.286;2023-07-28T00:02:47;19.60;99.90
5461;DHT22;2753;49.196;8.286;2023-07-28T00:05:12;19.60;99.90
5461;DHT22;2753;49.196;8.286;2023-07-28T00:07:38;19.60;99.90
5461;DHT22;2753;49.196;8.286;2023-07-28T00:10:04;19.60;99.90
5461;DHT22;2753;49.196;8.286;2023-07-28T00:12:30;19.60;99.90
5461;DHT22;2753;49.196;8.286;2023-07-28T00:14:56;19.60;99.90
5461;DHT22;2753;49.196;8.286;2023-07-28T00:17:22;19.60;99.90
5461;DHT22;2753;49.196;8.286;2023-07-28T00:19:47;19.60;99.90
5461;DHT22;2753;49.196;8.286;2023-07-28T00:22:13;19.60;99.90
5461;DHT22;2753;49.196;8.286;2023-07-28T00:24:39;19.60;99.90
5461;DHT22;2753;49.196;8.286;2023-07-28T00:27:05;19.60;99.90
5461;DHT22;2753;49.196;8.286;2023-07-28T00:29:31;19.60;99.90
5461;DHT22;2753;49.196;8.286;2023-07-28T00:31:56;19.60;99.90
5461;DHT22;2753;49.196;8.286;2023-07-28T00:34:22;19.60;99.90
5461;DHT22;2753;49.196;8.286;2023-07-28T00:36:47;19.60;99.90
5461;DHT22;2753;49.196;8.286;2023-07-28T00:39:13;19.60;99.90
5461;DHT22;2753;49.196;8.286;2023-07-28T00:41:39;19.50;99.90
5461;DHT22;2753;49.196;8.286;2023-07-28T00:44:05;19.50;99.90
5461;DHT22;2753;49.196;8.286;2023-07-28T00:46:31;19.50;99.90
5461;DHT22;2753;49.196;8.286;2023-07-28T00:48:56;19.50;99.90
5461;DHT22;2753;49.196;8.286;2023-07-28T00:51:23;19.50;99.90
5461;DHT22;2753;49.196;8.286;2023-07-28T00:53:48;19.50;99.90
5461;DHT22;2753;49.196;8.286;2023-07-28T00:56:14;19.50;99.90
5461;DHT22;2753;49.196;8.286;2023-07-28T00:58:40;19.50;99.90
5461;DHT22;2753;49.196;8.286;2023-07-28T01:01:06;19.50;99.90
5461;DHT22;2753;49.196;8.286;2023-07-28T01:03:32;19.50;99.90
5461;DHT22;2753;49.196;8.286;2023-07-28T01:08:57;19.50;99.90
5461;DHT22;2753;49.196;8.286;2023-07-28T01:11:24;19.50;99.90
5461;DHT22;2753;49.196;8.286;2023-07-28T01:13:50;19.50;99.90
5461;DHT22;2753;49.196;8.286;2023-07-28T01:16:16;19.50;99.90
5461;DHT22;2753;49.196;8.286;2023-07-28T01:18:41;19.50;99.90
5461;DHT22;2753;49.196;8.286;2023-07-28T01:21:09;19.50;99.90
5461;DHT22;2753;49.196;8.286;2023-07-28T01:26:16;19.50;99.90
5461;DHT22;2753;49.196;8.286;2023-07-28T01:28:43;19.50;99.90
5461;DHT22;2753;49.196;8.286;2023-07-28T01:31:10;19.40;99.90
5461;DHT22;2753;49.196;8.286;2023-07-28T01:33:35;19.40;99.90
5461;DHT22;2753;49.196;8.286;2023-07-28T01:36:02;19.40;99.90
5461;DHT22;2753;49.196;8.286;2023-07-28T01:38:28;19.40;99.90
5461;DHT22;2753;49.196;8.286;2023-07-28T01:40:54;19.40;99.90
5461;DHT22;2753;49.196;8.286;2023-07-28T01:43:19;19.40;99.90
5461;DHT22;2753;49.196;8.286;2023-07-28T01:45:45;19.40;99.90
5461;DHT22;2753;49.196;8.286;2023-07-28T01:48:11;19.40;99.90
5461;DHT22;2753;49.196;8.286;2023-07-28T01:50:37;19.40;99.90
5461;DHT22;2753;49.196;8.286;2023-07-28T01:53:04;19.40;99.90
5461;DHT22;2753;49.196;8.286;2023-07-28T01:55:30;19.40;99.90
5461;DHT22;2753;49.196;8.286;2023-07-28T01:57:58;19.40;99.90
5461;DHT22;2753;49.196;8.286;2023-07-28T02:00:24;19.40;99.90
5461;DHT22;2753;49.196;8.286;2023-07-28T02:02:51;19.40;99.90
5461;DHT22;2753;49.196;8.286;2023-07-28T02:05:17;19.40;99.90
5461;DHT22;2753;49.196;8.286;2023-07-28T02:07:43;19.40;99.90
5461;DHT22;2753;49.196;8.286;2023-07-28T02:10:09;19.40;99.90
5461;DHT22;2753;49.196;8.286;2023-07-28T02:12:36;19.40;99.90
5461;DHT22;2753;49.196;8.286;2023-07-28T02:15:01;19.40;99.90
5461;DHT22;2753;49.196;8.286;2023-07-28T02:17:27;19.40;99.90
5461;DHT22;2753;49.196;8.286;2023-07-28T02:19:53;19.40;99.90
5461;DHT22;2753;49.196;8.286;2023-07-28T02:22:19;19.40;99.90
5461;DHT22;2753;49.196;8.286;2023-07-28T02:24:44;19.40;99.90
5461;DHT22;2753;49.196;8.286;2023-07-28T02:27:10;19.40;99.90
5461;DHT22;2753;49.196;8.286;2023-07-28T02:29:36;19.40;99.90
5461;DHT22;2753;49.196;8.286;2023-07-28T02:32:01;19.40;99.90
5461;DHT22;2753;49.196;8.286;2023-07-28T02:34:27;19.40;99.90
5461;DHT22;2753;49.196;8.286;2023-07-28T02:36:53;19.40;99.90
5461;DHT22;2753;49.196;8.286;2023-07-28T02:39:19;19.40;99.90
5461;DHT22;2753;49.196;8.286;2023-07-28T02:41:46;19.40;99.90
5461;DHT22;2753;49.196;8.286;2023-07-28T02:44:11;19.40;99.90
5461;DHT22;2753;49.196;8.286;2023-07-28T02:46:37;19.40;99.90
5461;DHT22;2753;49.196;8.286;2023-07-28T02:49:03;19.40;99.90
5461;DHT22;2753;49.196;8.286;2023-07-28T02:51:30;19.40;99.90
5461;DHT22;2753;49.196;8.286;2023-07-28T02:53:55;19.40;99.90
5461;DHT22;2753;49.196;8.286;2023-07-28T02:56:21;19.40;99.90
5461;DHT22;2753;49.196;8.286;2023-07-28T02:58:48;19.40;99.90
5461;DHT22;2753;49.196;8.286;2023-07-28T03:01:14;19.40;99.90
5461;DHT22;2753;49.196;8.286;2023-07-28T03:03:40;19.40;99.90
5461;DHT22;2753;49.196;8.286;2023-07-28T03:06:05;19.40;99.90
5461;DHT22;2753;49.196;8.286;2023-07-28T03:08:31;19.40;99.90
5461;DHT22;2753;49.196;8.286;2023-07-28T03:11:00;19.40;99.90
5461;DHT22;2753;49.196;8.286;2023-07-28T03:13:28;19.30;99.90
5461;DHT22;2753;49.196;8.286;2023-07-28T03:15:54;19.30;99.90
5461;DHT22;2753;49.196;8.286;2023-07-28T03:18:20;19.30;99.90
5461;DHT22;2753;49.196;8.286;2023-07-28T03:20:46;19.30;99.90
5461;DHT22;2753;49.196;8.286;2023-07-28T03:23:12;19.30;99.90
5461;DHT22;2753;49.196;8.286;2023-07-28T03:25:38;19.30;99.90
5461;DHT22;2753;49.196;8.286;2023-07-28T03:28:03;19.30;99.90
5461;DHT22;2753;49.196;8.286;2023-07-28T03:30:29;19.30;99.90
5461;DHT22;2753;49.196;8.286;2023-07-28T03:32:55;19.30;99.90
5461;DHT22;2753;49.196;8.286;2023-07-28T03:35:21;19.30;99.90
5461;DHT22;2753;49.196;8.286;2023-07-28T03:37:46;19.30;99.90
5461;DHT22;2753;49.196;8.286;2023-07-28T03:40:12;19.30;99.90
5461;DHT22;2753;49.196;8.286;2023-07-28T03:42:41;19.30;99.90
5461;DHT22;2753;49.196;8.286;2023-07-28T03:45:07;19.30;99.90
5461;DHT22;2753;49.196;8.286;2023-07-28T03:47:33;19.30;99.90
5461;DHT22;2753;49.196;8.286;2023-07-28T03:49:59;19.30;99.90
5461;DHT22;2753;49.196;8.286;2023-07-28T03:52:24;19.30;99.90
5461;DHT22;2753;49.196;8.286;2023-07-28T03:54:50;19.30;99.90
5461;DHT22;2753;49.196;8.286;2023-07-28T03:57:16;19.30;99.90
5461;DHT22;2753;49.196;8.286;2023-07-28T03:59:41;19.30;99.90
5461;DHT22;2753;49.196;8.286;2023-07-28T04:02:07;19.30;99.90
5461;DHT22;2753;49.196;8.286;2023-07-28T04:04:33;19.30;99.90
5461;DHT22;2753;49.196;8.286;2023-07-28T04:06:58;19.30;99.90
5461;DHT22;2753;49.196;8.286;2023-07-28T04:09:24;19.30;99.90
5461;DHT22;2753;49.196;8.286;2023-07-28T04:11:50;19.30;99.90
5461;DHT22;2753;49.196;8.286;2023-07-28T04:14:15;19.20;99.90
5461;DHT22;2753;49.196;8.286;2023-07-28T04:16:41;19.20;99.90
5461;DHT22;2753;49.196;8.286;2023-07-28T04:19:07;19.20;99.90
5461;DHT22;2753;49.196;8.286;2023-07-28T04:21:32;19.20;99.90
5461;DHT22;2753;49.196;8.286;2023-07-28T04:23:58;19.20;99.90
5461;DHT22;2753;49.196;8.286;2023-07-28T04:26:24;19.20;99.90
5461;DHT22;2753;49.196;8.286;2023-07-28T04:28:50;19.20;99.90
5461;DHT22;2753;49.196;8.286;2023-07-28T04:31:17;19.10;99.90
5461;DHT22;2753;49.196;8.286;2023-07-28T04:33:43;19.20;99.90
5461;DHT22;2753;49.196;8.286;2023-07-28T04:36:09;19.20;99.90
5461;DHT22;2753;49.196;8.286;2023-07-28T04:38:35;19.10;99.90
5461;DHT22;2753;49.196;8.286;2023-07-28T04:41:01;19.10;99.90
5461;DHT22;2753;49.196;8.286;2023-07-28T04:43:27;19.20;99.90
5461;DHT22;2753;49.196;8.286;2023-07-28T04:45:53;19.20;99.90
5461;DHT22;2753;49.196;8.286;2023-07-28T04:48:18;19.20;99.90
5461;DHT22;2753;49.196;8.286;2023-07-28T04:50:44;19.20;99.90
5461;DHT22;2753;49.196;8.286;2023-07-28T04:53:10;19.20;99.90
5461;DHT22;2753;49.196;8.286;2023-07-28T04:55:36;19.20;99.90
5461;DHT22;2753;49.196;8.286;2023-07-28T04:58:02;19.20;99.90
5461;DHT22;2753;49.196;8.286;2023-07-28T05:00:28;19.20;99.90
5461;DHT22;2753;49.196;8.286;2023-07-28T05:02:54;19.20;99.90
5461;DHT22;2753;49.196;8.286;2023-07-28T05:05:19;19.20;99.90
5461;DHT22;2753;49.196;8.286;2023-07-28T05:07:45;19.20;99.90
5461;DHT22;2753;49.196;8.286;2023-07-28T05:10:11;19.10;99.90
5461;DHT22;2753;49.196;8.286;2023-07-28T05:12:37;19.20;99.90
5461;DHT22;2753;49.196;8.286;2023-07-28T05:15:04;19.20;99.90
5461;DHT22;2753;49.196;8.286;2023-07-28T05:17:30;19.20;99.90
5461;DHT22;2753;49.196;8.286;2023-07-28T05:19:55;19.20;99.90
5461;DHT22;2753;49.196;8.286;2023-07-28T05:22:21;19.20;99.90
5461;DHT22;2753;49.196;8.286;2023-07-28T05:24:47;19.20;99.90
5461;DHT22;2753;49.196;8.286;2023-07-28T05:27:12;19.20;99.90
5461;DHT22;2753;49.196;8.286;2023-07-28T05:29:38;19.20;99.90
5461;DHT22;2753;49.196;8.286;2023-07-28T05:32:04;19.20;99.90
5461;DHT22;2753;49.196;8.286;2023-07-28T05:34:30;19.20;99.90
5461;DHT22;2753;49.196;8.286;2023-07-28T05:36:56;19.20;99.90
5461;DHT22;2753;49.196;8.286;2023-07-28T05:39:22;19.20;99.90
5461;DHT22;2753;49.196;8.286;2023-07-28T05:41:47;19.20;99.90
5461;DHT22;2753;49.196;8.286;2023-07-28T05:44:14;19.20;99.90
5461;DHT22;2753;49.196;8.286;2023-07-28T05:46:39;19.20;99.90
5461;DHT22;2753;49.196;8.286;2023-07-28T05:49:05;19.20;99.90
5461;DHT22;2753;49.196;8.286;2023-07-28T05:51:31;19.20;99.90
5461;DHT22;2753;49.196;8.286;2023-07-28T05:53:57;19.20;99.90
5461;DHT22;2753;49.196;8.286;2023-07-28T05:56:22;19.20;99.90
5461;DHT22;2753;49.196;8.286;2023-07-28T05:58:49;19.30;99.90
5461;DHT22;2753;49.196;8.286;2023-07-28T06:01:14;19.20;99.90
5461;DHT22;2753;49.196;8.286;2023-07-28T06:03:40;19.20;99.90
5461;DHT22;2753;49.196;8.286;2023-07-28T06:06:06;19.20;99.90
5461;DHT22;2753;49.196;8.286;2023-07-28T06:08:32;19.20;99.90
5461;DHT22;2753;49.196;8.286;2023-07-28T06:10:58;19.20;99.90
5461;DHT22;2753;49.196;8.286;2023-07-28T06:13:24;19.20;99.90
5461;DHT22;2753;49.196;8.286;2023-07-28T06:15:52;19.20;99.90
5461;DHT22;2753;49.196;8.286;2023-07-28T06:18:18;19.20;99.90
5461;DHT22;2753;49.196;8.286;2023-07-28T06:20:44;19.20;99.90
5461;DHT22;2753;49.196;8.286;2023-07-28T06:23:10;19.20;99.90
5461;DHT22;2753;49.196;8.286;2023-07-28T06:25:36;19.20;99.90
5461;DHT22;2753;49.196;8.286;2023-07-28T06:28:03;19.20;99.90
5461;DHT22;2753;49.196;8.286;2023-07-28T06:30:29;19.30;99.90
5461;DHT22;2753;49.196;8.286;2023-07-28T06:32:56;19.30;99.90
5461;DHT22;2753;49.196;8.286;2023-07-28T06:35:22;19.30;99.90
5461;DHT22;2753;49.196;8.286;2023-07-28T06:37:48;19.30;99.90
5461;DHT22;2753;49.196;8.286;2023-07-28T06:40:13;19.30;99.90
5461;DHT22;2753;49.196;8.286;2023-07-28T06:42:39;19.30;99.90
5461;DHT22;2753;49.196;8.286;2023-07-28T06:45:06;19.30;99.90
5461;DHT22;2753;49.196;8.286;2023-07-28T06:47:31;19.30;99.90
5461;DHT22;2753;49.196;8.286;2023-07-28T06:49:57;19.40;99.90
5461;DHT22;2753;49.196;8.286;2023-07-28T06:52:23;19.40;99.90
5461;DHT22;2753;49.196;8.286;2023-07-28T06:54:49;19.40;99.90
5461;DHT22;2753;49.196;8.286;2023-07-28T06:57:15;19.40;99.90
5461;DHT22;2753;49.196;8.286;2023-07-28T06:59:41;19.40;99.90
5461;DHT22;2753;49.196;8.286;2023-07-28T07:02:08;19.40;99.90
5461;DHT22;2753;49.196;8.286;2023-07-28T07:04:35;19.40;99.90
5461;DHT22;2753;49.196;8.286;2023-07-28T07:07:00;19.40;99.90
5461;DHT22;2753;49.196;8.286;2023-07-28T07:09:26;19.40;99.90
5461;DHT22;2753;49.196;8.286;2023-07-28T07:11:52;19.40;99.90
5461;DHT22;2753;49.196;8.286;2023-07-28T07:14:17;19.40;99.90
5461;DHT22;2753;49.196;8.286;2023-07-28T07:16:44;19.40;99.90
5461;DHT22;2753;49.196;8.286;2023-07-28T07:19:10;19.50;99.90
5461;DHT22;2753;49.196;8.286;2023-07-28T07:21:35;19.50;99.90
5461;DHT22;2753;49.196;8.286;2023-07-28T07:24:03;19.50;99.90
5461;DHT22;2753;49.196;8.286;2023-07-28T07:26:29;19.50;99.90
5461;DHT22;2753;49.196;8.286;2023-07-28T07:28:56;19.50;99.90
5461;DHT22;2753;49.196;8.286;2023-07-28T07:31:22;19.50;99.90
5461;DHT22;2753;49.196;8.286;2023-07-28T07:33:47;19.50;99.90
5461;DHT22;2753;49.196;8.286;2023-07-28T07:36:17;19.50;99.90
5461;DHT22;2753;49.196;8.286;2023-07-28T07:38:44;19.60;99.90
5461;DHT22;2753;49.196;8.286;2023-07-28T07:41:14;19.60;99.90
5461;DHT22;2753;49.196;8.286;2023-07-28T07:43:45;19.60;99.90
5461;DHT22;2753;49.196;8.286;2023-07-28T07:46:10;19.70;99.90
5461;DHT22;2753;49.196;8.286;2023-07-28T07:48:36;19.70;99.90
5461;DHT22;2753;49.196;8.286;2023-07-28T07:51:02;19.70;99.90
5461;DHT22;2753;49.196;8.286;2023-07-28T07:53:28;19.70;99.90
5461;DHT22;2753;49.196;8.286;2023-07-28T07:55:53;19.80;99.90
5461;DHT22;2753;49.196;8.286;2023-07-28T07:58:19;19.80;99.90
5461;DHT22;2753;49.196;8.286;2023-07-28T08:00:45;19.90;99.90
5461;DHT22;2753;49.196;8.286;2023-07-28T08:03:11;19.90;99.90
5461;DHT22;2753;49.196;8.286;2023-07-28T08:05:36;20.00;99.90
5461;DHT22;2753;49.196;8.286;2023-07-28T08:08:03;20.00;99.90
5461;DHT22;2753;49.196;8.286;2023-07-28T08:10:28;20.10;99.90
5461;DHT22;2753;49.196;8.286;2023-07-28T08:12:55;20.10;99.90
5461;DHT22;2753;49.196;8.286;2023-07-28T08:15:21;20.10;99.90
5461;DHT22;2753;49.196;8.286;2023-07-28T08:17:46;20.10;99.90
5461;DHT22;2753;49.196;8.286;2023-07-28T08:20:12;20.20;99.90
5461;DHT22;2753;49.196;8.286;2023-07-28T08:22:38;20.20;99.90
5461;DHT22;2753;49.196;8.286;2023-07-28T08:25:04;20.20;99.90
5461;DHT22;2753;49.196;8.286;2023-07-28T08:27:30;20.30;99.90
5461;DHT22;2753;49.196;8.286;2023-07-28T08:29:56;20.40;99.90
5461;DHT22;2753;49.196;8.286;2023-07-28T08:32:22;20.50;99.90
5461;DHT22;2753;49.196;8.286;2023-07-28T08:34:48;20.50;99.90
5461;DHT22;2753;49.196;8.286;2023-07-28T08:37:13;20.50;99.90
5461;DHT22;2753;49.196;8.286;2023-07-28T08:39:39;20.50;99.90
5461;DHT22;2753;49.196;8.286;2023-07-28T08:42:05;20.60;99.90
5461;DHT22;2753;49.196;8.286;2023-07-28T08:44:34;20.60;99.90
5461;DHT22;2753;49.196;8.286;2023-07-28T08:47:03;20.60;99.90
5461;DHT22;2753;49.196;8.286;2023-07-28T08:49:34;20.60;99.90
5461;DHT22;2753;49.196;8.286;2023-07-28T08:52:03;20.60;99.90
5461;DHT22;2753;49.196;8.286;2023-07-28T08:54:31;20.60;99.90
5461;DHT22;2753;49.196;8.286;2023-07-28T08:57:00;20.70;99.90
5461;DHT22;2753;49.196;8.286;2023-07-28T08:59:46;20.70;99.90
5461;DHT22;2753;49.196;8.286;2023-07-28T09:02:17;20.70;99.90
5461;DHT22;2753;49.196;8.286;2023-07-28T09:04:44;20.60;99.90
5461;DHT22;2753;49.196;8.286;2023-07-28T09:07:10;20.70;99.90
5461;DHT22;2753;49.196;8.286;2023-07-28T09:09:37;20.70;99.90
5461;DHT22;2753;49.196;8.286;2023-07-28T09:12:09;20.60;99.90
5461;DHT22;2753;49.196;8.286;2023-07-28T09:14:39;20.60;99.90
5461;DHT22;2753;49.196;8.286;2023-07-28T09:17:15;20.60;99.90
5461;DHT22;2753;49.196;8.286;2023-07-28T09:19:55;20.70;99.90
5461;DHT22;2753;49.196;8.286;2023-07-28T09:22:21;20.70;99.90
5461;DHT22;2753;49.196;8.286;2023-07-28T09:24:51;20.70;99.90
5461;DHT22;2753;49.196;8.286;2023-07-28T09:27:21;20.70;99.90
5461;DHT22;2753;49.196;8.286;2023-07-28T09:29:49;20.70;99.90
5461;DHT22;2753;49.196;8.286;2023-07-28T09:32:15;20.70;99.90
5461;DHT22;2753;49.196;8.286;2023-07-28T09:34:41;20.70;99.90
5461;DHT22;2753;49.196;8.286;2023-07-28T09:37:08;20.80;99.90
5461;DHT22;2753;49.196;8.286;2023-07-28T09:39:36;20.80;99.90
5461;DHT22;2753;49.196;8.286;2023-07-28T09:42:02;20.80;99.90
5461;DHT22;2753;49.196;8.286;2023-07-28T09:44:29;20.90;99.90
5461;DHT22;2753;49.196;8.286;2023-07-28T09:46:56;20.90;99.90
5461;DHT22;2753;49.196;8.286;2023-07-28T09:49:41;20.90;99.90
5461;DHT22;2753;49.196;8.286;2023-07-28T09:52:09;20.90;99.90
5461;DHT22;2753;49.196;8.286;2023-07-28T09:54:41;20.90;99.90
5461;DHT22;2753;49.196;8.286;2023-07-28T09:57:15;20.90;99.90
5461;DHT22;2753;49.196;8.286;2023-07-28T09:59:43;20.90;99.90
5461;DHT22;2753;49.196;8.286;2023-07-28T10:02:12;20.90;99.90
5461;DHT22;2753;49.196;8.286;2023-07-28T10:04:38;21.00;99.90
5461;DHT22;2753;49.196;8.286;2023-07-28T10:07:07;21.00;99.90
5461;DHT22;2753;49.196;8.286;2023-07-28T10:09:34;21.20;99.90
5461;DHT22;2753;49.196;8.286;2023-07-28T10:12:01;21.30;99.90
5461;DHT22;2753;49.196;8.286;2023-07-28T10:14:30;21.50;99.90
5461;DHT22;2753;49.196;8.286;2023-07-28T10:17:00;21.50;99.90
5461;DHT22;2753;49.196;8.286;2023-07-28T10:19:34;21.50;99.90
5461;DHT22;2753;49.196;8.286;2023-07-28T10:22:09;21.60;99.90
5461;DHT22;2753;49.196;8.286;2023-07-28T10:24:57;21.70;99.90
5461;DHT22;2753;49.196;8.286;2023-07-28T10:27:46;21.70;99.90
5461;DHT22;2753;49.196;8.286;2023-07-28T10:30:20;21.80;99.90
5461;DHT22;2753;49.196;8.286;2023-07-28T10:33:02;21.80;99.90
5461;DHT22;2753;49.196;8.286;2023-07-28T10:35:50;21.80;99.90
5461;DHT22;2753;49.196;8.286;2023-07-28T10:38:30;21.90;99.90
5461;DHT22;2753;49.196;8.286;2023-07-28T10:41:14;21.80;99.90
5461;DHT22;2753;49.196;8.286;2023-07-28T10:43:41;21.80;99.90
5461;DHT22;2753;49.196;8.286;2023-07-28T10:46:09;21.80;99.90
5461;DHT22;2753;49.196;8.286;2023-07-28T10:48:36;21.70;99.90
5461;DHT22;2753;49.196;8.286;2023-07-28T10:51:03;21.70;99.90
5461;DHT22;2753;49.196;8.286;2023-07-28T10:53:30;21.60;99.90
5461;DHT22;2753;49.196;8.286;2023-07-28T10:55:57;21.60;99.90
5461;DHT22;2753;49.196;8.286;2023-07-28T10:58:23;21.60;99.90
5461;DHT22;2753;49.196;8.286;2023-07-28T11:00:50;21.60;99.90
5461;DHT22;2753;49.196;8.286;2023-07-28T11:03:17;21.60;99.90
5461;DHT22;2753;49.196;8.286;2023-07-28T11:05:43;21.50;99.90
5461;DHT22;2753;49.196;8.286;2023-07-28T11:08:09;21.50;99.90
5461;DHT22;2753;49.196;8.286;2023-07-28T11:10:35;21.50;99.90
5461;DHT22;2753;49.196;8.286;2023-07-28T11:13:03;21.60;99.90
5461;DHT22;2753;49.196;8.286;2023-07-28T11:15:32;21.60;99.90
5461;DHT22;2753;49.196;8.286;2023-07-28T11:17:59;21.60;99.90
5461;DHT22;2753;49.196;8.286;2023-07-28T11:20:27;21.70;99.90
5461;DHT22;2753;49.196;8.286;2023-07-28T11:23:00;21.60;99.90
5461;DHT22;2753;49.196;8.286;2023-07-28T11:25:28;21.60;99.90
5461;DHT22;2753;49.196;8.286;2023-07-28T11:27:54;21.60;99.90
5461;DHT22;2753;49.196;8.286;2023-07-28T11:30:21;21.60;99.90
5461;DHT22;2753;49.196;8.286;2023-07-28T11:32:49;21.60;99.90
5461;DHT22;2753;49.196;8.286;2023-07-28T11:35:16;21.60;99.90
5461;DHT22;2753;49.196;8.286;2023-07-28T11:37:44;21.50;99.90
5461;DHT22;2753;49.196;8.286;2023-07-28T11:40:10;21.50;99.90
5461;DHT22;2753;49.196;8.286;2023-07-28T11:42:41;21.50;99.90
5461;DHT22;2753;49.196;8.286;2023-07-28T11:45:09;21.50;99.90
5461;DHT22;2753;49.196;8.286;2023-07-28T11:47:36;21.50;99.90
5461;DHT22;2753;49.196;8.286;2023-07-28T11:50:01;21.50;99.90
5461;DHT22;2753;49.196;8.286;2023-07-28T11:54:59;21.50;99.90
5461;DHT22;2753;49.196;8.286;2023-07-28T11:57:26;21.50;99.90
5461;DHT22;2753;49.196;8.286;2023-07-28T11:59:52;21.40;99.90
5461;DHT22;2753;49.196;8.286;2023-07-28T12:02:27;21.40;99.90
5461;DHT22;2753;49.196;8.286;2023-07-28T12:04:54;21.40;99.90
5461;DHT22;2753;49.196;8.286;2023-07-28T12:07:31;21.40;99.90
5461;DHT22;2753;49.196;8.286;2023-07-28T12:10:02;21.40;99.90
5461;DHT22;2753;49.196;8.286;2023-07-28T12:12:29;21.30;99.90
5461;DHT22;2753;49.196;8.286;2023-07-28T12:14:57;21.30;99.90
5461;DHT22;2753;49.196;8.286;2023-07-28T12:17:30;21.20;99.90
5461;DHT22;2753;49.196;8.286;2023-07-28T12:20:07;21.20;99.90
5461;DHT22;2753;49.196;8.286;2023-07-28T12:22:40;21.30;99.90
5461;DHT22;2753;49.196;8.286;2023-07-28T12:25:06;21.20;99.90
5461;DHT22;2753;49.196;8.286;2023-07-28T12:27:32;21.20;99.90
5461;DHT22;2753;49.196;8.286;2023-07-28T12:29:58;21.20;99.90
5461;DHT22;2753;49.196;8.286;2023-07-28T12:32:24;21.20;99.90
5461;DHT22;2753;49.196;8.286;2023-07-28T12:34:50;21.20;99.90
5461;DHT22;2753;49.196;8.286;2023-07-28T12:37:19;21.20;99.90
5461;DHT22;2753;49.196;8.286;2023-07-28T12:39:46;21.20;99.90
5461;DHT22;2753;49.196;8.286;2023-07-28T12:42:12;21.20;99.90
5461;DHT22;2753;49.196;8.286;2023-07-28T12:44:39;21.20;99.90
5461;DHT22;2753;49.196;8.286;2023-07-28T12:47:05;21.20;99.90
5461;DHT22;2753;49.196;8.286;2023-07-28T12:49:31;21.20;99.90
5461;DHT22;2753;49.196;8.286;2023-07-28T12:51:58;21.20;99.90
5461;DHT22;2753;49.196;8.286;2023-07-28T12:54:25;21.20;99.90
5461;DHT22;2753;49.196;8.286;2023-07-28T12:56:59;21.20;99.90
5461;DHT22;2753;49.196;8.286;2023-07-28T12:59:25;21.20;99.90
5461;DHT22;2753;49.196;8.286;2023-07-28T13:01:51;21.20;99.90
5461;DHT22;2753;49.196;8.286;2023-07-28T13:04:17;21.10;99.90
5461;DHT22;2753;49.196;8.286;2023-07-28T13:06:43;21.10;99.90
5461;DHT22;2753;49.196;8.286;2023-07-28T13:09:09;21.00;99.90
5461;DHT22;2753;49.196;8.286;2023-07-28T13:11:35;20.90;99.90
5461;DHT22;2753;49.196;8.286;2023-07-28T13:14:01;20.90;99.90
5461;DHT22;2753;49.196;8.286;2023-07-28T13:16:27;20.90;99.90
5461;DHT22;2753;49.196;8.286;2023-07-28T13:18:53;20.90;99.90
5461;DHT22;2753;49.196;8.286;2023-07-28T13:21:18;20.80;99.90
5461;DHT22;2753;49.196;8.286;2023-07-28T13:23:44;20.80;99.90
5461;DHT22;2753;49.196;8.286;2023-07-28T13:26:10;20.90;99.90
5461;DHT22;2753;49.196;8.286;2023-07-28T13:28:36;20.90;99.90
5461;DHT22;2753;49.196;8.286;2023-07-28T13:31:02;20.80;99.90
5461;DHT22;2753;49.196;8.286;2023-07-28T13:33:28;20.80;99.90
5461;DHT22;2753;49.196;8.286;2023-07-28T13:35:54;20.70;99.90
5461;DHT22;2753;49.196;8.286;2023-07-28T13:38:20;20.70;99.90
5461;DHT22;2753;49.196;8.286;2023-07-28T13:40:45;20.60;99.90
5461;DHT22;2753;49.196;8.286;2023-07-28T13:43:11;20.60;99.90
5461;DHT22;2753;49.196;8.286;2023-07-28T13:45:36;20.50;99.90
5461;DHT22;2753;49.196;8.286;2023-07-28T13:48:03;20.60;99.90
5461;DHT22;2753;49.196;8.286;2023-07-28T13:50:28;20.70;99.90
5461;DHT22;2753;49.196;8.286;2023-07-28T13:52:54;20.70;99.90
5461;DHT22;2753;49.196;8.286;2023-07-28T13:55:20;20.70;99.90
5461;DHT22;2753;49.196;8.286;2023-07-28T13:57:46;20.70;99.90
5461;DHT22;2753;49.196;8.286;2023-07-28T14:00:12;20.70;99.90
5461;DHT22;2753;49.196;8.286;2023-07-28T14:02:38;20.80;99.90
5461;DHT22;2753;49.196;8.286;2023-07-28T14:05:06;20.80;99.90
5461;DHT22;2753;49.196;8.286;2023-07-28T14:07:32;20.80;99.90
5461;DHT22;2753;49.196;8.286;2023-07-28T14:09:59;20.80;99.90
5461;DHT22;2753;49.196;8.286;2023-07-28T14:12:25;20.80;99.90
5461;DHT22;2753;49.196;8.286;2023-07-28T14:14:51;20.70;99.90
5461;DHT22;2753;49.196;8.286;2023-07-28T14:17:16;20.70;99.90
5461;DHT22;2753;49.196;8.286;2023-07-28T14:19:42;20.70;99.90
5461;DHT22;2753;49.196;8.286;2023-07-28T14:22:08;20.60;99.90
5461;DHT22;2753;49.196;8.286;2023-07-28T14:24:34;20.60;99.90
5461;DHT22;2753;49.196;8.286;2023-07-28T14:27:00;20.60;99.90
5461;DHT22;2753;49.196;8.286;2023-07-28T14:29:26;20.60;99.90
5461;DHT22;2753;49.196;8.286;2023-07-28T14:31:52;20.60;99.90
5461;DHT22;2753;49.196;8.286;2023-07-28T14:34:17;20.70;99.90
5461;DHT22;2753;49.196;8.286;2023-07-28T14:36:43;20.60;99.90
5461;DHT22;2753;49.196;8.286;2023-07-28T14:39:09;20.60;99.90
5461;DHT22;2753;49.196;8.286;2023-07-28T14:41:35;20.70;99.90
5461;DHT22;2753;49.196;8.286;2023-07-28T14:44:01;20.70;99.90
5461;DHT22;2753;49.196;8.286;2023-07-28T14:46:27;20.70;99.90
5461;DHT22;2753;49.196;8.286;2023-07-28T14:48:53;20.70;99.90
5461;DHT22;2753;49.196;8.286;2023-07-28T14:51:20;20.70;99.90
5461;DHT22;2753;49.196;8.286;2023-07-28T14:53:45;20.60;99.90
5461;DHT22;2753;49.196;8.286;2023-07-28T14:56:12;20.70;99.90
5461;DHT22;2753;49.196;8.286;2023-07-28T14:58:38;20.60;99.90
5461;DHT22;2753;49.196;8.286;2023-07-28T15:01:07;20.50;99.90
5461;DHT22;2753;49.196;8.286;2023-07-28T15:03:33;20.60;99.90
5461;DHT22;2753;49.196;8.286;2023-07-28T15:06:00;20.60;99.90
5461;DHT22;2753;49.196;8.286;2023-07-28T15:08:26;20.70;99.90
5461;DHT22;2753;49.196;8.286;2023-07-28T15:10:52;20.70;99.90
5461;DHT22;2753;49.196;8.286;2023-07-28T15:13:18;20.70;99.90
5461;DHT22;2753;49.196;8.286;2023-07-28T15:15:44;20.70;99.90
5461;DHT22;2753;49.196;8.286;2023-07-28T15:18:10;20.70;99.90
5461;DHT22;2753;49.196;8.286;2023-07-28T15:20:37;20.70;99.90
5461;DHT22;2753;49.196;8.286;2023-07-28T15:23:02;20.70;99.90
5461;DHT22;2753;49.196;8.286;2023-07-28T15:25:28;20.70;99.90
5461;DHT22;2753;49.196;8.286;2023-07-28T15:27:54;20.70;99.90
5461;DHT22;2753;49.196;8.286;2023-07-28T15:30:20;20.70;99.90
5461;DHT22;2753;49.196;8.286;2023-07-28T15:32:46;20.60;99.90
5461;DHT22;2753;49.196;8.286;2023-07-28T15:35:12;20.60;99.90
5461;DHT22;2753;49.196;8.286;2023-07-28T15:37:37;20.70;99.90
5461;DHT22;2753;49.196;8.286;2023-07-28T15:40:04;20.70;99.90
5461;DHT22;2753;49.196;8.286;2023-07-28T15:42:30;20.70;99.90
5461;DHT22;2753;49.196;8.286;2023-07-28T15:44:56;20.70;99.90
5461;DHT22;2753;49.196;8.286;2023-07-28T15:47:22;20.70;99.90
5461;DHT22;2753;49.196;8.286;2023-07-28T15:49:47;20.70;99.90
5461;DHT22;2753;49.196;8.286;2023-07-28T15:52:16;20.70;99.90
5461;DHT22;2753;49.196;8.286;2023-07-28T15:54:42;20.70;99.90
5461;DHT22;2753;49.196;8.286;2023-07-28T15:57:07;20.60;99.90
5461;DHT22;2753;49.196;8.286;2023-07-28T15:59:33;20.70;99.90
5461;DHT22;2753;49.196;8.286;2023-07-28T16:01:59;20.70;99.90
5461;DHT22;2753;49.196;8.286;2023-07-28T16:04:24;20.70;99.90
5461;DHT22;2753;49.196;8.286;2023-07-28T16:06:52;20.70;99.90